createdAt,value
2023-04-19T00:02:29.114Z,100696.60
2023-04-19T00:05:22.353Z,100695.23
2023-04-19T00:07:51.403Z,100695.52
2023-04-19T00:10:20.288Z,100696.10
2023-04-19T00:12:48.676Z,100694.41
2023-04-19T00:15:17.212Z,100691.58
2023-04-19T00:17:45.744Z,100691.70
2023-04-19T00:20:14.235Z,100689.95
2023-04-19T00:22:42.640Z,100688.13
2023-04-19T00:25:11.188Z,100688.36
2023-04-19T00:27:39.794Z,100686.94
2023-04-19T00:30:08.694Z,100684.54
2023-04-19T00:32:37.260Z,100679.16
2023-04-19T00:35:06.377Z,100673.50
2023-04-19T00:37:34.853Z,100671.54
2023-04-19T00:40:04.657Z,100674.66
2023-04-19T00:42:33.059Z,100670.16
2023-04-19T00:45:01.456Z,100668.61
2023-04-19T00:47:30.810Z,100668.80
2023-04-19T00:50:05.117Z,100661.06
2023-04-19T01:02:14.845Z,100651.49
2023-04-19T01:04:44.159Z,100647.67
2023-04-19T01:07:13.211Z,100646.52
2023-04-19T01:09:44.173Z,100643.41
2023-04-19T01:12:12.687Z,100642.63
2023-04-19T01:14:41.523Z,100642.41
2023-04-19T01:17:10.201Z,100643.66
2023-04-19T01:19:38.729Z,100640.27
2023-04-19T01:22:09.440Z,100635.55
2023-04-19T01:24:37.837Z,100633.41
2023-04-19T01:27:07.018Z,100630.77
2023-04-19T01:29:35.478Z,100633.45
2023-04-19T01:32:04.020Z,100630.89
2023-04-19T01:34:32.329Z,100630.80
2023-04-19T01:37:00.924Z,100629.25
2023-04-19T01:39:30.224Z,100624.84
2023-04-19T01:41:58.607Z,100622.60
2023-04-19T01:44:27.117Z,100621.31
2023-04-19T01:47:25.090Z,100618.30
2023-04-19T01:49:53.596Z,100613.13
2023-04-19T02:07:50.769Z,100608.71
2023-04-19T02:10:19.148Z,100608.31
2023-04-19T02:12:47.533Z,100607.39
2023-04-19T02:15:15.866Z,100605.89
2023-04-19T02:17:46.634Z,100602.42
2023-04-19T02:20:15.027Z,100602.18
2023-04-19T02:22:44.033Z,100598.23
2023-04-19T02:25:12.682Z,100597.30
2023-04-19T02:27:41.086Z,100598.27
2023-04-19T02:30:10.172Z,100595.32
2023-04-19T02:32:38.664Z,100592.43
2023-04-19T02:35:07.476Z,100592.16
2023-04-19T02:37:35.843Z,100591.97
2023-04-19T02:40:05.546Z,100592.10
2023-04-19T02:42:33.909Z,100589.99
2023-04-19T02:45:02.313Z,100584.27
2023-04-19T02:47:30.730Z,100585.83
2023-04-19T02:50:00.517Z,100584.04
2023-04-19T02:52:28.978Z,100576.36
2023-04-19T02:54:57.378Z,100581.25
2023-04-19T02:57:25.822Z,100577.18
2023-04-19T02:59:54.167Z,100573.92
2023-04-19T03:02:22.869Z,100574.11
2023-04-19T03:04:53.066Z,100571.35
2023-04-19T03:07:21.438Z,100564.81
2023-04-19T03:09:49.792Z,100564.22
2023-04-19T03:12:18.144Z,100557.33
2023-04-19T03:14:46.529Z,100557.11
2023-04-19T03:17:14.941Z,100557.55
2023-04-19T03:19:43.268Z,100551.90
2023-04-19T03:22:11.579Z,100546.51
2023-04-19T03:24:40.024Z,100546.85
2023-04-19T03:27:08.405Z,100544.86
2023-04-19T03:29:36.801Z,100547.38
2023-04-19T03:32:05.274Z,100550.41
2023-04-19T03:34:33.700Z,100554.93
2023-04-19T03:37:02.152Z,100553.80
2023-04-19T03:39:30.604Z,100557.48
2023-04-19T03:41:59.118Z,100554.00
2023-04-19T03:44:27.553Z,100550.38
2023-04-19T03:46:55.900Z,100549.49
2023-04-19T03:49:24.288Z,100540.57
2023-04-19T03:51:52.779Z,100538.94
2023-04-19T03:54:21.209Z,100541.95
2023-04-19T03:56:49.614Z,100538.86
2023-04-19T03:59:17.971Z,100531.68
2023-04-19T04:01:46.429Z,100536.29
2023-04-19T04:04:15.121Z,100541.73
2023-04-19T04:06:44.465Z,100550.38
2023-04-19T04:09:12.804Z,100552.23
2023-04-19T04:11:41.203Z,100552.69
2023-04-19T04:14:09.569Z,100551.16
2023-04-19T04:16:38.124Z,100550.23
2023-04-19T04:19:07.311Z,100549.86
2023-04-19T04:21:35.787Z,100547.31
2023-04-19T04:24:04.633Z,100550.16
2023-04-19T04:26:34.065Z,100553.39
2023-04-19T04:29:03.082Z,100554.27
2023-04-19T04:31:36.281Z,100559.13
2023-04-19T04:34:04.814Z,100559.28
2023-04-19T04:36:33.304Z,100560.38
2023-04-19T04:39:02.001Z,100561.37
2023-04-19T04:41:31.560Z,100558.62
2023-04-19T04:44:12.099Z,100559.80
2023-04-19T04:46:41.230Z,100559.88
2023-04-19T04:49:09.605Z,100559.40
2023-04-19T04:51:38.143Z,100562.37
2023-04-19T04:54:06.485Z,100561.10
2023-04-19T04:56:34.903Z,100557.65
2023-04-19T04:59:03.379Z,100555.99
2023-04-19T05:01:31.739Z,100556.66
2023-04-19T05:04:00.913Z,100568.30
2023-04-19T05:06:29.275Z,100572.05
2023-04-19T05:08:57.639Z,100570.09
2023-04-19T05:11:27.610Z,100570.31
2023-04-19T05:14:23.413Z,100568.48
2023-04-19T05:16:51.930Z,100573.80
2023-04-19T05:19:21.103Z,100572.36
2023-04-19T05:21:49.811Z,100571.41
2023-04-19T05:24:20.006Z,100572.98
2023-04-19T05:26:49.589Z,100577.45
2023-04-19T05:29:18.495Z,100567.85
2023-04-19T05:31:49.717Z,100566.98
2023-04-19T05:34:22.457Z,100569.08
2023-04-19T05:37:38.222Z,100565.54
2023-04-19T05:40:10.332Z,100561.27
2023-04-19T05:45:25.198Z,100560.84
2023-04-19T05:47:54.369Z,100565.54
2023-04-19T05:50:23.606Z,100562.68
2023-04-19T05:52:52.967Z,100559.92
2023-04-19T05:55:25.769Z,100560.11
2023-04-19T05:57:54.557Z,100557.05
2023-04-19T06:00:22.983Z,100551.31
2023-04-19T06:02:51.499Z,100551.25
2023-04-19T06:05:20.701Z,100551.14
2023-04-19T06:07:55.366Z,100558.35
2023-04-19T06:10:40.329Z,100556.42
2023-04-19T06:13:18.578Z,100556.75
2023-04-19T06:15:47.942Z,100555.19
2023-04-19T06:18:19.299Z,100553.72
2023-04-19T06:20:48.753Z,100561.09
2023-04-19T06:24:05.158Z,100559.39
2023-04-19T06:26:34.736Z,100559.83
2023-04-19T06:29:03.303Z,100557.58
2023-04-19T06:31:32.707Z,100557.22
2023-04-19T06:34:25.935Z,100557.36
2023-04-19T06:37:01.688Z,100560.89
2023-04-19T06:39:31.181Z,100564.40
2023-04-19T06:41:59.571Z,100566.49
2023-04-19T06:44:32.481Z,100569.41
2023-04-19T06:47:00.901Z,100571.69
2023-04-19T06:49:52.546Z,100574.63
2023-04-19T06:52:22.113Z,100569.71
2023-04-19T06:54:51.750Z,100570.98
2023-04-19T06:57:20.518Z,100564.52
2023-04-19T06:59:54.830Z,100564.58
2023-04-19T07:02:24.509Z,100566.45
2023-04-19T07:04:53.323Z,100565.57
2023-04-19T07:07:23.049Z,100567.37
2023-04-19T07:09:51.456Z,100571.47
2023-04-19T07:12:19.875Z,100565.95
2023-04-19T07:14:48.342Z,100561.73
2023-04-19T07:17:18.266Z,100560.42
2023-04-19T07:19:49.046Z,100556.95
2023-04-19T07:22:17.397Z,100555.95
2023-04-19T07:24:45.854Z,100558.50
2023-04-19T07:27:14.957Z,100558.64
2023-04-19T07:29:43.448Z,100563.34
2023-04-19T07:32:14.565Z,100562.81
2023-04-19T07:34:43.687Z,100558.77
2023-04-19T07:37:12.720Z,100556.30
2023-04-19T07:39:41.489Z,100550.27
2023-04-19T07:42:09.941Z,100549.06
2023-04-19T07:44:38.424Z,100543.52
2023-04-19T07:47:06.853Z,100540.86
2023-04-19T07:49:35.687Z,100536.33
2023-04-19T07:52:07.853Z,100537.36
2023-04-19T07:54:38.923Z,100532.91
2023-04-19T07:57:07.368Z,100532.04
2023-04-19T07:59:36.193Z,100535.45
2023-04-19T08:02:05.884Z,100539.08
2023-04-19T08:04:34.934Z,100540.67
2023-04-19T08:07:04.910Z,100545.58
2023-04-19T08:09:34.650Z,100548.02
2023-04-19T08:12:03.331Z,100544.11
2023-04-19T08:14:40.459Z,100543.95
2023-04-19T08:17:22.342Z,100540.77
2023-04-19T08:19:54.781Z,100532.77
2023-04-19T08:22:24.367Z,100533.35
2023-04-19T08:24:53.475Z,100535.41
2023-04-19T08:27:21.964Z,100531.73
2023-04-19T08:29:50.452Z,100528.77
2023-04-19T08:32:19.069Z,100521.46
2023-04-19T08:34:47.614Z,100521.36
2023-04-19T08:37:16.218Z,100523.41
2023-04-19T08:39:44.543Z,100524.98
2023-04-19T08:47:44.900Z,100525.79
2023-04-19T08:50:33.387Z,100525.37
2023-04-19T08:55:59.139Z,100529.39
2023-04-19T08:58:52.043Z,100527.85
2023-04-19T09:01:34.570Z,100525.52
2023-04-19T09:04:34.714Z,100528.94
2023-04-19T09:07:26.377Z,100525.23
2023-04-19T09:10:14.538Z,100522.55
2023-04-19T09:12:44.016Z,100515.55
2023-04-19T09:15:35.194Z,100513.86
2023-04-19T09:18:28.989Z,100512.98
2023-04-19T09:21:29.782Z,100511.21
2023-04-19T09:24:01.806Z,100505.98
2023-04-19T09:26:36.591Z,100505.34
2023-04-19T09:29:16.980Z,100503.77
2023-04-19T09:32:06.565Z,100505.85
2023-04-19T09:34:35.224Z,100508.27
2023-04-19T09:37:25.025Z,100504.98
2023-04-19T09:39:54.036Z,100506.14
2023-04-19T09:42:38.432Z,100506.45
2023-04-19T09:45:28.362Z,100507.14
2023-04-19T09:48:10.012Z,100508.52
2023-04-19T09:50:57.374Z,100507.53
2023-04-19T09:53:35.462Z,100510.74
2023-04-19T09:56:13.013Z,100512.40
2023-04-19T09:58:52.574Z,100514.12
2023-04-19T10:01:26.872Z,100516.88
2023-04-19T10:03:59.220Z,100514.74
2023-04-19T10:07:06.694Z,100516.73
2023-04-19T10:09:29.991Z,100517.74
2023-04-19T10:12:06.628Z,100519.31
2023-04-19T10:18:05.779Z,100517.84
2023-04-19T10:20:51.468Z,100519.46
2023-04-19T10:23:23.129Z,100513.65
2023-04-19T10:25:59.611Z,100516.82
2023-04-19T10:28:31.670Z,100511.98
2023-04-19T10:31:02.641Z,100510.56
2023-04-19T10:33:37.630Z,100511.11
2023-04-19T10:36:10.529Z,100508.70
2023-04-19T10:38:51.554Z,100504.22
2023-04-19T10:41:20.097Z,100507.94
2023-04-19T10:43:58.173Z,100505.38
2023-04-19T10:46:29.137Z,100500.58
2023-04-19T10:49:00.292Z,100502.16
2023-04-19T10:51:44.379Z,100504.16
2023-04-19T10:54:32.491Z,100502.58
2023-04-19T10:57:07.342Z,100503.91
2023-04-19T10:59:37.985Z,100502.31
2023-04-19T11:16:01.889Z,100487.00
2023-04-19T11:18:31.318Z,100486.26
2023-04-19T11:21:01.284Z,100489.33
2023-04-19T11:23:30.497Z,100483.16
2023-04-19T11:26:00.527Z,100484.10
2023-04-19T11:28:38.822Z,100487.06
2023-04-19T11:34:41.603Z,100485.98
2023-04-19T11:37:13.323Z,100487.02
2023-04-19T11:39:52.628Z,100487.55
2023-04-19T11:42:22.356Z,100489.67
2023-04-19T11:44:59.463Z,100489.02
2023-04-19T11:47:30.305Z,100489.07
2023-04-19T11:50:36.566Z,100486.84
2023-04-19T11:53:32.470Z,100487.59
2023-04-19T11:56:12.159Z,100491.06
2023-04-19T11:58:52.376Z,100490.08
2023-04-19T12:01:22.192Z,100492.18
2023-04-19T12:03:53.045Z,100493.81
2023-04-19T12:06:34.348Z,100492.06
2023-04-19T12:09:12.270Z,100494.70
2023-04-19T12:11:45.902Z,100497.35
2023-04-19T12:14:21.524Z,100500.61
2023-04-19T12:17:12.168Z,100502.77
2023-04-19T12:19:52.177Z,100497.88
2023-04-19T12:22:23.939Z,100495.29
2023-04-19T12:24:54.513Z,100495.48
2023-04-19T12:27:25.663Z,100494.93
2023-04-19T12:29:54.995Z,100498.05
2023-04-19T12:32:25.215Z,100494.75
2023-04-19T12:34:54.027Z,100491.92
2023-04-19T12:37:22.588Z,100493.25
2023-04-19T12:39:51.678Z,100491.55
2023-04-19T12:42:20.066Z,100489.99
2023-04-19T12:44:48.934Z,100487.83
2023-04-19T12:47:19.019Z,100487.86
2023-04-19T12:49:47.636Z,100488.88
2023-04-19T12:52:16.065Z,100489.15
2023-04-19T12:54:44.652Z,100488.20
2023-04-19T12:57:14.844Z,100489.34
2023-04-19T12:59:43.523Z,100490.25
2023-04-19T13:02:12.387Z,100486.27
2023-04-19T13:04:42.308Z,100487.17
2023-04-19T13:07:12.230Z,100490.75
2023-04-19T13:09:40.915Z,100489.69
2023-04-19T13:12:09.466Z,100490.20
2023-04-19T13:14:37.885Z,100493.27
2023-04-19T13:17:06.886Z,100492.30
2023-04-19T13:19:35.279Z,100494.07
2023-04-19T13:22:03.731Z,100496.52
2023-04-19T13:24:32.234Z,100497.59
2023-04-19T13:27:02.101Z,100498.23
2023-04-19T13:29:31.878Z,100495.93
2023-04-19T13:32:00.360Z,100495.50
2023-04-19T13:34:29.735Z,100496.23
2023-04-19T13:37:01.136Z,100498.10
2023-04-19T13:39:29.600Z,100495.02
2023-04-19T13:41:59.682Z,100496.67
2023-04-19T13:44:29.461Z,100494.55
2023-04-19T13:46:58.980Z,100493.98
2023-04-19T13:49:27.861Z,100494.70
2023-04-19T13:51:56.375Z,100493.73
2023-04-19T13:54:25.992Z,100493.91
2023-04-19T13:56:56.470Z,100492.03
2023-04-19T13:59:26.707Z,100493.11
2023-04-19T14:01:55.982Z,100495.02
2023-04-19T14:04:25.032Z,100492.15
2023-04-19T14:06:53.765Z,100492.20
2023-04-19T14:09:23.628Z,100488.36
2023-04-19T14:11:52.161Z,100489.60
2023-04-19T14:14:21.245Z,100489.34
2023-04-19T14:16:49.727Z,100486.38
2023-04-19T14:19:46.221Z,100486.31
2023-04-19T14:22:17.252Z,100483.05
2023-04-19T14:24:46.354Z,100480.93
2023-04-19T14:27:14.907Z,100485.65
2023-04-19T14:29:43.297Z,100481.53
2023-04-19T14:32:24.952Z,100478.92
2023-04-19T14:34:55.905Z,100477.68
2023-04-19T14:37:24.798Z,100477.96
2023-04-19T14:39:53.403Z,100484.74
2023-04-19T14:42:23.051Z,100480.48
2023-04-19T14:44:52.564Z,100483.16
2023-04-19T14:47:21.793Z,100488.59
2023-04-19T14:49:50.656Z,100485.38
2023-04-19T14:52:19.186Z,100487.58
2023-04-19T14:54:47.669Z,100482.77
2023-04-19T14:57:16.317Z,100480.32
2023-04-19T14:59:45.130Z,100478.20
2023-04-19T15:02:13.887Z,100473.91
2023-04-19T15:04:42.945Z,100471.86
2023-04-19T15:07:11.567Z,100478.04
2023-04-19T15:09:40.859Z,100480.20
2023-04-19T15:12:09.324Z,100479.66
2023-04-19T15:14:39.158Z,100480.98
2023-04-19T15:17:07.964Z,100480.19
2023-04-19T15:19:36.583Z,100479.08
2023-04-19T15:22:05.324Z,100481.69
2023-04-19T15:24:35.661Z,100483.80
2023-04-19T15:27:04.350Z,100479.35
2023-04-19T15:29:32.792Z,100480.61
2023-04-19T15:32:02.575Z,100481.92
2023-04-19T15:34:30.972Z,100480.50
2023-04-19T15:36:59.458Z,100479.00
2023-04-19T15:39:28.601Z,100479.11
2023-04-19T15:41:57.266Z,100480.02
2023-04-19T15:44:26.953Z,100480.23
2023-04-19T15:46:56.342Z,100478.71
2023-04-19T15:49:26.601Z,100478.60
2023-04-19T15:51:56.173Z,100482.27
2023-04-19T15:54:24.529Z,100483.84
2023-04-19T15:56:53.066Z,100486.34
2023-04-19T15:59:22.138Z,100491.10
2023-04-19T16:01:52.165Z,100497.20
2023-04-19T16:04:21.741Z,100494.98
2023-04-19T16:06:51.258Z,100494.16
2023-04-19T16:09:19.572Z,100495.36
2023-04-19T16:11:48.361Z,100495.06
2023-04-19T16:14:16.770Z,100492.35
2023-04-19T16:16:45.517Z,100489.23
2023-04-19T16:19:14.061Z,100493.26
2023-04-19T16:21:43.803Z,100493.10
2023-04-19T16:24:12.747Z,100493.80
2023-04-19T16:26:41.320Z,100494.41
2023-04-19T16:29:09.724Z,100493.73
2023-04-19T16:31:38.107Z,100501.61
2023-04-19T16:34:06.481Z,100505.68
2023-04-19T16:36:34.890Z,100505.14
2023-04-19T16:39:03.518Z,100502.48
2023-04-19T16:41:31.870Z,100506.27
2023-04-19T16:44:00.143Z,100506.56
2023-04-19T16:46:28.765Z,100504.97
2023-04-19T16:48:58.930Z,100504.58
2023-04-19T16:51:28.343Z,100511.64
2023-04-19T16:53:56.738Z,100511.98
2023-04-19T16:56:25.180Z,100516.89
2023-04-19T16:58:56.374Z,100517.52
2023-04-19T17:01:24.984Z,100516.14
2023-04-19T17:03:53.690Z,100519.13
2023-04-19T17:06:22.727Z,100514.45
2023-04-19T17:08:51.502Z,100515.23
2023-04-19T17:11:20.750Z,100515.36
2023-04-19T17:13:49.074Z,100513.77
2023-04-19T17:16:17.595Z,100522.16
2023-04-19T17:18:45.984Z,100520.61
2023-04-19T17:21:16.104Z,100521.58
2023-04-19T17:23:46.131Z,100519.54
2023-04-19T17:26:16.089Z,100517.38
2023-04-19T17:28:44.414Z,100521.04
2023-04-19T17:31:12.895Z,100523.85
2023-04-19T17:33:41.472Z,100523.59
2023-04-19T17:36:09.940Z,100524.45
2023-04-19T17:38:38.430Z,100523.34
2023-04-19T17:41:08.649Z,100524.55
2023-04-19T17:43:37.126Z,100526.60
2023-04-19T17:46:05.767Z,100529.71
2023-04-19T17:48:34.879Z,100532.79
2023-04-19T17:51:03.431Z,100536.52
2023-04-19T17:53:31.983Z,100536.08
2023-04-19T17:56:00.472Z,100533.96
2023-04-19T17:58:28.912Z,100535.65
2023-04-19T18:00:57.592Z,100535.99
2023-04-19T18:03:26.261Z,100539.83
2023-04-19T18:05:54.953Z,100546.93
2023-04-19T18:08:23.382Z,100551.48
2023-04-19T18:10:52.646Z,100550.18
2023-04-19T18:13:21.713Z,100552.14
2023-04-19T18:15:50.372Z,100557.25
2023-04-19T18:18:18.819Z,100561.14
2023-04-19T18:20:47.142Z,100566.05
2023-04-19T18:23:15.845Z,100565.91
2023-04-19T18:25:44.192Z,100571.35
2023-04-19T18:28:12.524Z,100570.35
2023-04-19T18:30:41.188Z,100567.20
2023-04-19T18:33:09.688Z,100567.91
2023-04-19T18:35:38.213Z,100570.30
2023-04-19T18:38:06.822Z,100568.48
2023-04-19T18:40:35.306Z,100568.91
2023-04-19T18:43:03.852Z,100562.74
2023-04-19T18:45:33.251Z,100570.88
2023-04-19T18:48:01.878Z,100575.11
2023-04-19T18:50:31.216Z,100575.83
2023-04-19T18:52:59.788Z,100577.77
2023-04-19T18:55:29.332Z,100579.77
2023-04-19T18:57:57.728Z,100576.82
2023-04-19T19:00:26.155Z,100574.94
2023-04-19T19:02:55.368Z,100574.81
2023-04-19T19:05:24.373Z,100571.17
2023-04-19T19:07:53.127Z,100572.25
2023-04-19T19:10:22.762Z,100575.28
2023-04-19T19:13:02.474Z,100577.36
2023-04-19T19:15:30.821Z,100572.87
2023-04-19T19:17:59.503Z,100572.41
2023-04-19T19:20:28.095Z,100572.15
2023-04-19T19:22:56.640Z,100579.86
2023-04-19T19:25:25.221Z,100580.40
2023-04-19T19:30:27.717Z,100582.43
2023-04-19T19:32:56.440Z,100582.29
2023-04-19T19:35:25.326Z,100581.89
2023-04-19T19:37:53.930Z,100583.10
2023-04-19T19:40:23.107Z,100589.73
2023-04-19T19:42:51.536Z,100591.41
2023-04-19T19:45:20.801Z,100594.12
2023-04-19T19:47:50.444Z,100594.11
2023-04-19T19:52:51.848Z,100594.19
2023-04-19T19:55:20.258Z,100595.52
2023-04-19T19:58:23.671Z,100601.88
2023-04-19T20:00:45.931Z,100603.87
2023-04-19T20:03:28.344Z,100603.21
2023-04-19T20:06:17.795Z,100606.95
2023-04-19T20:08:50.346Z,100601.08
2023-04-19T20:11:18.809Z,100601.36
2023-04-19T20:13:47.302Z,100602.72
2023-04-19T20:16:18.306Z,100600.13
2023-04-19T20:18:49.343Z,100603.80
2023-04-19T20:21:19.529Z,100608.15
2023-04-19T20:23:47.957Z,100607.02
2023-04-19T20:26:16.347Z,100609.72
2023-04-19T20:28:44.668Z,100608.77
2023-04-19T20:31:13.072Z,100608.70
2023-04-19T20:33:41.399Z,100603.17
2023-04-19T20:36:09.929Z,100608.15
2023-04-19T20:38:38.380Z,100597.66
2023-04-19T20:41:06.756Z,100593.08
2023-04-19T20:43:35.084Z,100593.67
2023-04-19T21:11:15.080Z,100603.19
2023-04-19T21:13:46.672Z,100604.98
2023-04-19T21:16:15.248Z,100602.05
2023-04-19T21:18:43.645Z,100604.02
2023-04-19T21:21:12.181Z,100599.39
2023-04-19T21:23:40.570Z,100601.20
2023-04-19T21:26:09.635Z,100595.34
2023-04-19T21:28:38.061Z,100591.52
2023-04-19T21:31:06.543Z,100593.83
2023-04-19T21:33:34.948Z,100594.73
2023-04-19T21:36:03.596Z,100599.02
2023-04-19T21:38:31.977Z,100602.93
2023-04-19T21:41:00.667Z,100607.00
2023-04-19T21:43:31.571Z,100604.31
2023-04-19T21:46:01.844Z,100603.81
2023-04-19T21:48:31.271Z,100606.37
2023-04-19T21:51:01.598Z,100608.86
2023-04-19T21:53:31.256Z,100608.89
2023-04-19T21:55:59.802Z,100608.36
2023-04-19T21:58:28.222Z,100610.44
2023-04-19T22:00:56.652Z,100612.42
2023-04-19T22:03:25.324Z,100605.61
2023-04-19T22:05:54.385Z,100605.88
2023-04-19T22:08:22.887Z,100606.65
2023-04-19T22:10:51.283Z,100607.33
2023-04-19T22:13:21.549Z,100607.27
2023-04-19T22:15:50.650Z,100607.42
2023-04-19T22:18:19.256Z,100604.05
2023-04-19T22:20:49.887Z,100601.75
2023-04-19T22:23:18.210Z,100602.56
2023-04-19T22:25:46.578Z,100598.98
2023-04-19T22:28:15.009Z,100593.70
2023-04-19T22:30:43.491Z,100589.67
2023-04-19T22:33:11.915Z,100589.23
2023-04-19T22:35:40.320Z,100584.90
2023-04-19T22:38:08.734Z,100585.77
2023-04-19T22:40:37.452Z,100588.64
2023-04-19T22:43:05.802Z,100587.95
2023-04-19T22:45:34.221Z,100580.84
2023-04-19T22:48:03.354Z,100582.86
2023-04-19T22:50:31.975Z,100583.45
2023-04-19T22:53:00.546Z,100588.59
2023-04-19T22:55:29.001Z,100583.23
2023-04-19T22:57:57.385Z,100584.61
2023-04-19T23:00:26.581Z,100582.58
2023-04-19T23:02:55.349Z,100584.32
2023-04-19T23:05:27.588Z,100587.98
2023-04-19T23:07:58.790Z,100584.56
2023-04-19T23:10:27.611Z,100587.35
2023-04-19T23:12:56.400Z,100586.29
2023-04-19T23:15:25.234Z,100581.35
2023-04-19T23:17:53.585Z,100580.75
2023-04-19T23:20:22.336Z,100579.73
2023-04-19T23:22:50.824Z,100583.27
2023-04-19T23:25:19.225Z,100578.79
2023-04-19T23:27:49.889Z,100576.67
2023-04-19T23:30:18.976Z,100574.33
2023-04-19T23:32:47.486Z,100572.36
2023-04-19T23:35:16.037Z,100566.74
2023-04-19T23:37:44.398Z,100569.95
2023-04-19T23:40:12.842Z,100567.05
2023-04-19T23:42:41.216Z,100568.29
2023-04-19T23:45:10.316Z,100566.67
2023-04-19T23:47:38.757Z,100563.25
2023-04-19T23:50:08.230Z,100561.29
2023-04-19T23:52:36.698Z,100566.81
2023-04-19T23:55:05.572Z,100560.11
2023-04-19T23:57:35.763Z,100564.91
